createdAt,value
2022-08-05T00:01:20.114Z,100659.66
2022-08-05T00:02:07.419Z,100645.76
2022-08-05T00:03:08.368Z,100654.92
2022-08-05T00:04:13.518Z,100651.31
2022-08-05T00:06:02.663Z,100656.59
2022-08-05T00:06:30.792Z,100655.76
2022-08-05T00:08:00.147Z,100654.92
2022-08-05T00:08:35.099Z,100654.09
2022-08-05T00:09:36.736Z,100651.31
2022-08-05T00:10:39.712Z,100649.37
2022-08-05T00:11:49.211Z,100655.76
2022-08-05T00:12:55.844Z,100652.15
2022-08-05T00:13:53.214Z,100646.59
2022-08-05T00:14:56.375Z,100646.59
2022-08-05T00:16:00.477Z,100651.03
2022-08-05T00:17:03.735Z,100641.03
2022-08-05T00:18:08.672Z,100654.92
2022-08-05T00:19:11.615Z,100651.31
2022-08-05T00:20:20.417Z,100658.86
2022-08-05T00:21:21.598Z,100656.88
2022-08-05T00:22:24.470Z,100660.80
2022-08-05T00:23:44.676Z,100657.19
2022-08-05T00:24:32.620Z,100657.19
2022-08-05T00:25:45.497Z,100661.91
2022-08-05T00:26:46.713Z,100654.70
2022-08-05T00:27:46.656Z,100653.86
2022-08-05T00:28:50.330Z,100658.59
2022-08-05T00:29:53.560Z,100658.07
2022-08-05T00:31:02.798Z,100656.41
2022-08-05T00:32:12.398Z,100662.80
2022-08-05T00:34:42.281Z,100660.30
2022-08-05T00:34:55.923Z,100661.97
2022-08-05T00:35:21.766Z,100659.19
2022-08-05T00:37:11.239Z,100665.03
2022-08-05T00:37:50.823Z,100658.64
2022-08-05T00:38:39.038Z,100650.59
2022-08-05T00:39:44.150Z,100648.13
2022-08-05T00:40:53.401Z,100644.52
2022-08-05T00:41:56.460Z,100647.29
2022-08-05T00:43:02.262Z,100642.02
2022-08-05T00:44:05.872Z,100638.69
2022-08-05T00:45:13.413Z,100640.12
2022-08-05T00:46:14.809Z,100634.02
2022-08-05T00:47:19.179Z,100633.78
2022-08-05T00:48:27.441Z,100637.95
2022-08-05T00:49:28.078Z,100639.90
2022-08-05T00:50:34.596Z,100632.44
2022-08-05T00:51:51.598Z,100636.88
2022-08-05T00:52:45.383Z,100633.27
2022-08-05T00:54:02.499Z,100628.83
2022-08-05T00:54:54.593Z,100627.20
2022-08-05T00:55:59.210Z,100628.83
2022-08-05T00:57:03.923Z,100629.66
2022-08-05T00:58:07.107Z,100630.50
2022-08-05T00:59:12.114Z,100632.44
2022-08-05T01:00:17.188Z,100617.72
2022-08-05T01:01:42.220Z,100621.65
2022-08-05T01:02:27.145Z,100622.45
2022-08-05T01:03:31.006Z,100628.00
2022-08-05T01:04:36.370Z,100623.59
2022-08-05T01:05:41.323Z,100620.81
2022-08-05T01:06:48.679Z,100625.54
2022-08-05T01:08:41.929Z,100624.70
2022-08-05T01:08:57.545Z,100631.09
2022-08-05T01:10:02.803Z,100632.48
2022-08-05T01:11:11.235Z,100633.60
2022-08-05T01:12:19.620Z,100627.22
2022-08-05T01:13:57.734Z,100635.55
2022-08-05T01:15:05.771Z,100633.60
2022-08-05T01:16:14.674Z,100629.47
2022-08-05T01:17:32.226Z,100634.20
2022-08-05T01:18:40.670Z,100643.64
2022-08-05T01:20:00.995Z,100638.37
2022-08-05T01:21:12.100Z,100630.87
2022-08-05T01:22:38.530Z,100641.98
2022-08-05T01:24:13.098Z,100641.45
2022-08-05T01:25:54.262Z,100637.02
2022-08-05T01:27:34.590Z,100631.74
2022-08-05T01:28:48.491Z,100630.39
2022-08-05T01:29:55.064Z,100628.45
2022-08-05T01:31:18.439Z,100622.08
2022-08-05T01:32:24.608Z,100626.83
2022-08-05T01:33:35.166Z,100627.94
2022-08-05T01:34:42.383Z,100629.60
2022-08-05T01:35:52.193Z,100634.32
2022-08-05T01:37:00.620Z,100632.38
2022-08-05T01:38:04.753Z,100631.55
2022-08-05T01:39:08.549Z,100624.84
2022-08-05T01:40:14.474Z,100631.23
2022-08-05T01:41:22.381Z,100628.45
2022-08-05T01:42:30.966Z,100633.17
2022-08-05T01:43:37.079Z,100627.63
2022-08-05T01:44:43.880Z,100632.38
2022-08-05T01:45:56.255Z,100635.16
2022-08-05T01:46:55.280Z,100634.32
2022-08-05T01:48:00.456Z,100641.82
2022-08-05T01:49:23.383Z,100640.16
2022-08-05T01:50:32.622Z,100649.32
2022-08-05T01:51:36.622Z,100643.77
2022-08-05T01:52:42.607Z,100647.37
2022-08-05T01:53:57.757Z,100653.76
2022-08-05T01:54:57.928Z,100650.15
2022-08-05T01:56:04.544Z,100651.81
2022-08-05T01:58:12.658Z,100653.76
2022-08-05T01:58:16.100Z,100653.45
2022-08-05T01:59:23.255Z,100656.22
2022-08-05T02:00:30.383Z,100645.12
2022-08-05T02:01:40.244Z,100661.50
2022-08-05T02:02:46.491Z,100660.39
2022-08-05T02:03:50.649Z,100666.77
2022-08-05T02:04:56.235Z,100662.33
2022-08-05T02:06:03.546Z,100658.44
2022-08-05T02:07:06.698Z,100662.88
2022-08-05T02:08:10.500Z,100663.72
2022-08-05T02:09:16.304Z,100663.72
2022-08-05T02:10:20.287Z,100666.18
2022-08-05T02:11:33.671Z,100663.41
2022-08-05T02:12:59.077Z,100665.06
2022-08-05T02:14:14.758Z,100669.79
2022-08-05T02:15:23.099Z,100659.52
2022-08-05T02:16:32.354Z,100665.06
2022-08-05T02:18:28.338Z,100654.23
2022-08-05T02:18:49.904Z,100657.84
2022-08-05T02:19:56.831Z,100661.73
2022-08-05T02:21:15.656Z,100666.48
2022-08-05T02:22:33.838Z,100668.13
2022-08-05T02:23:40.938Z,100665.66
2022-08-05T02:24:53.157Z,100670.38
2022-08-05T02:25:59.350Z,100676.77
2022-08-05T02:27:10.077Z,100669.55
2022-08-05T02:28:14.528Z,100671.49
2022-08-05T02:29:26.146Z,100661.50
2022-08-05T02:30:29.995Z,100669.83
2022-08-05T02:31:35.353Z,100662.33
2022-08-05T02:32:39.952Z,100662.33
2022-08-05T02:33:57.859Z,100668.72
2022-08-05T02:35:13.718Z,100668.72
2022-08-05T02:36:13.489Z,100670.38
2022-08-05T02:37:17.144Z,100671.49
2022-08-05T02:38:21.077Z,100670.38
2022-08-05T02:39:29.199Z,100675.10
2022-08-05T02:40:32.893Z,100671.21
2022-08-05T02:41:57.821Z,100671.21
2022-08-05T02:42:52.835Z,100681.17
2022-08-05T02:44:02.651Z,100673.68
2022-08-05T02:44:58.602Z,100667.30
2022-08-05T02:46:02.348Z,100679.23
2022-08-05T02:47:08.654Z,100680.89
2022-08-05T02:48:13.870Z,100673.68
2022-08-05T02:49:17.747Z,100680.62
2022-08-05T02:50:24.140Z,100664.78
2022-08-05T02:51:28.536Z,100673.95
2022-08-05T02:52:33.376Z,100676.41
2022-08-05T02:53:40.392Z,100681.69
2022-08-05T02:54:51.957Z,100681.41
2022-08-05T02:55:59.662Z,100678.63
2022-08-05T02:56:59.513Z,100679.98
2022-08-05T02:58:11.929Z,100676.09
2022-08-05T02:59:10.814Z,100679.70
2022-08-05T03:00:14.924Z,100678.88
2022-08-05T03:01:21.543Z,100674.98
2022-08-05T03:02:28.170Z,100681.37
2022-08-05T03:03:33.951Z,100684.14
2022-08-05T03:04:39.008Z,100684.98
2022-08-05T03:06:54.783Z,100681.92
2022-08-05T03:06:56.887Z,100683.55
2022-08-05T03:08:07.164Z,100683.27
2022-08-05T03:08:58.847Z,100683.27
2022-08-05T03:10:04.058Z,100689.66
2022-08-05T03:11:57.412Z,100689.90
2022-08-05T03:12:35.946Z,100685.17
2022-08-05T03:13:51.018Z,100682.67
2022-08-05T03:14:46.031Z,100681.52
2022-08-05T03:15:49.231Z,100680.41
2022-08-05T03:16:54.208Z,100682.07
2022-08-05T03:17:57.983Z,100688.46
2022-08-05T03:19:12.885Z,100681.79
2022-08-05T03:20:10.145Z,100670.68
2022-08-05T03:21:13.540Z,100677.59
2022-08-05T03:22:19.040Z,100674.52
2022-08-05T03:23:24.143Z,100676.19
2022-08-05T03:24:30.215Z,100675.91
2022-08-05T03:26:04.641Z,100679.20
2022-08-05T03:26:38.569Z,100675.59
2022-08-05T03:28:00.200Z,100676.14
2022-08-05T03:28:46.858Z,100685.31
2022-08-05T03:30:07.801Z,100676.69
2022-08-05T03:30:57.293Z,100674.43
2022-08-05T03:32:00.820Z,100669.70
2022-08-05T03:33:06.105Z,100671.37
2022-08-05T03:34:10.385Z,100673.03
2022-08-05T03:35:13.919Z,100671.09
2022-08-05T03:36:16.989Z,100679.94
2022-08-05T03:37:22.581Z,100677.71
2022-08-05T03:38:33.181Z,100674.64
2022-08-05T03:39:38.129Z,100682.67
2022-08-05T03:40:45.287Z,100679.61
2022-08-05T03:41:47.363Z,100684.05
2022-08-05T03:42:53.078Z,100683.77
2022-08-05T03:44:10.016Z,100688.20
2022-08-05T03:45:03.475Z,100687.89
2022-08-05T03:46:08.257Z,100697.89
2022-08-05T03:47:20.412Z,100692.88
2022-08-05T03:48:16.539Z,100691.80
2022-08-05T03:49:24.240Z,100694.27
2022-08-05T03:50:49.145Z,100695.64
2022-08-05T03:52:48.659Z,100703.70
2022-08-05T03:55:53.478Z,100701.16
2022-08-05T03:55:54.206Z,100699.48
2022-08-05T03:56:09.852Z,100703.65
2022-08-05T03:56:46.364Z,100700.55
2022-08-05T03:57:52.365Z,100698.32
2022-08-05T03:58:59.716Z,100704.42
2022-08-05T04:00:09.447Z,100700.50
2022-08-05T04:01:20.910Z,100699.93
2022-08-05T04:02:38.993Z,100710.77
2022-08-05T04:03:37.991Z,100713.23
2022-08-05T04:04:43.429Z,100708.22
2022-08-05T04:05:49.290Z,100715.44
2022-08-05T04:06:52.880Z,100713.17
2022-08-05T04:07:57.860Z,100708.16
2022-08-05T04:09:05.171Z,100713.44
2022-08-05T04:10:10.239Z,100717.56
2022-08-05T04:11:15.929Z,100716.45
2022-08-05T04:12:24.438Z,100719.77
2022-08-05T04:13:25.451Z,100710.31
2022-08-05T04:14:31.492Z,100712.78
2022-08-05T04:15:36.285Z,100720.55
2022-08-05T04:16:39.714Z,100716.65
2022-08-05T04:17:56.216Z,100716.33
2022-08-05T04:18:54.203Z,100717.71
2022-08-05T04:19:54.696Z,100718.54
2022-08-05T04:20:59.230Z,100711.86
2022-08-05T04:22:10.196Z,100710.14
2022-08-05T04:23:12.530Z,100718.48
2022-08-05T04:24:18.672Z,100720.66
2022-08-05T04:25:19.392Z,100717.59
2022-08-05T04:26:24.696Z,100724.81
2022-08-05T04:27:33.257Z,100715.03
2022-08-05T04:28:32.930Z,100717.52
2022-08-05T04:29:36.439Z,100715.58
2022-08-05T04:30:40.938Z,100718.07
2022-08-05T04:31:48.185Z,100717.46
2022-08-05T04:32:50.740Z,100706.05
2022-08-05T04:34:18.238Z,100708.54
2022-08-05T04:34:58.692Z,100706.27
2022-08-05T04:36:16.596Z,100704.31
2022-08-05T04:37:06.636Z,100702.11
2022-08-05T04:38:09.756Z,100702.94
2022-08-05T04:39:14.768Z,100699.84
2022-08-05T04:40:19.350Z,100702.62
2022-08-05T04:41:22.906Z,100712.63
2022-08-05T04:42:29.140Z,100706.48
2022-08-05T04:43:32.254Z,100707.00
2022-08-05T04:44:36.161Z,100701.14
2022-08-05T04:45:48.903Z,100707.54
2022-08-05T04:46:48.435Z,100708.08
2022-08-05T04:47:49.412Z,100698.58
2022-08-05T04:48:52.865Z,100707.47
2022-08-05T04:50:01.320Z,100711.92
2022-08-05T04:51:02.391Z,100706.34
2022-08-05T04:52:06.159Z,100710.47
2022-08-05T04:53:12.566Z,100711.02
2022-08-05T04:54:18.995Z,100710.72
2022-08-05T04:56:14.285Z,100711.23
2022-08-05T04:56:34.342Z,100708.98
2022-08-05T04:57:37.200Z,100707.58
2022-08-05T04:58:36.870Z,100700.56
2022-08-05T04:59:40.891Z,100705.02
2022-08-05T05:00:44.570Z,100699.98
2022-08-05T05:02:35.380Z,100703.56
2022-08-05T05:02:57.353Z,100702.45
2022-08-05T05:04:00.627Z,100694.63
2022-08-05T05:05:04.582Z,100701.54
2022-08-05T05:06:38.680Z,100700.42
2022-08-05T05:07:17.045Z,100704.57
2022-08-05T05:08:29.958Z,100708.19
2022-08-05T05:09:25.278Z,100703.12
2022-08-05T05:10:33.377Z,100698.09
2022-08-05T05:11:53.084Z,100699.43
2022-08-05T05:12:41.175Z,100696.36
2022-08-05T05:13:44.576Z,100703.30
2022-08-05T05:14:50.832Z,100706.91
2022-08-05T05:16:01.750Z,100699.06
2022-08-05T05:16:57.603Z,100702.39
2022-08-05T05:18:01.183Z,100711.28
2022-08-05T05:19:18.577Z,100708.17
2022-08-05T05:20:10.515Z,100703.43
2022-08-05T05:21:13.652Z,100705.92
2022-08-05T05:22:24.669Z,100704.80
2022-08-05T05:23:21.564Z,100702.52
2022-08-05T05:24:56.113Z,100706.14
2022-08-05T05:25:40.350Z,100702.23
2022-08-05T05:26:35.132Z,100697.22
2022-08-05T05:27:44.254Z,100708.05
2022-08-05T05:28:45.056Z,100704.96
2022-08-05T05:30:04.890Z,100709.11
2022-08-05T05:30:53.330Z,100706.84
2022-08-05T05:31:56.595Z,100707.67
2022-08-05T05:33:16.958Z,100715.73
2022-08-05T05:34:20.019Z,100711.82
2022-08-05T05:35:22.273Z,100719.56
2022-08-05T05:36:25.662Z,100714.82
2022-08-05T05:37:59.127Z,100701.72
2022-08-05T05:38:35.442Z,100708.66
2022-08-05T05:39:38.520Z,100703.58
2022-08-05T05:40:49.782Z,100709.70
2022-08-05T05:41:54.477Z,100708.57
2022-08-05T05:42:53.914Z,100704.33
2022-08-05T05:44:00.515Z,100696.20
2022-08-05T05:45:03.026Z,100696.20
2022-08-05T05:46:13.746Z,100692.27
2022-08-05T05:47:13.249Z,100705.91
2022-08-05T05:48:16.947Z,100704.78
2022-08-05T05:49:22.971Z,100693.33
2022-08-05T05:50:25.855Z,100703.32
2022-08-05T05:51:28.943Z,100702.20
2022-08-05T05:52:37.969Z,100704.69
2022-08-05T05:53:54.479Z,100711.09
2022-08-05T05:54:50.647Z,100707.18
2022-08-05T05:55:52.013Z,100705.22
2022-08-05T05:56:53.421Z,100705.72
2022-08-05T05:57:56.373Z,100710.17
2022-08-05T05:59:07.391Z,100719.38
2022-08-05T06:00:15.756Z,100712.96
2022-08-05T06:01:19.458Z,100717.41
2022-08-05T06:02:36.768Z,100727.11
2022-08-05T06:03:54.403Z,100723.52
2022-08-05T06:04:34.495Z,100727.94
2022-08-05T06:05:37.762Z,100727.94
2022-08-05T06:06:47.617Z,100727.64
2022-08-05T06:08:01.192Z,100732.09
2022-08-05T06:08:54.434Z,100725.69
2022-08-05T06:10:00.572Z,100732.92
2022-08-05T06:11:02.236Z,100727.35
2022-08-05T06:12:09.736Z,100733.43
2022-08-05T06:13:12.884Z,100732.30
2022-08-05T06:14:16.081Z,100742.86
2022-08-05T06:15:23.684Z,100737.79
2022-08-05T06:16:29.067Z,100735.53
2022-08-05T06:17:30.985Z,100741.64
2022-08-05T06:18:36.478Z,100739.06
2022-08-05T06:19:38.882Z,100747.63
2022-08-05T06:20:42.015Z,100745.61
2022-08-05T06:21:49.942Z,100752.26
2022-08-05T06:22:51.850Z,100746.59
2022-08-05T06:23:55.112Z,100754.86
2022-08-05T06:24:58.399Z,100749.18
2022-08-05T06:26:20.673Z,100750.75
2022-08-05T06:27:06.443Z,100748.98
2022-08-05T06:28:21.232Z,100751.67
2022-08-05T06:29:25.434Z,100752.41
2022-08-05T06:30:21.529Z,100747.55
2022-08-05T06:31:30.512Z,100743.83
2022-08-05T06:32:30.769Z,100743.72
2022-08-05T06:34:07.817Z,100746.41
2022-08-05T06:34:39.159Z,100759.16
2022-08-05T06:36:05.647Z,100758.14
2022-08-05T06:36:56.896Z,100758.14
2022-08-05T06:37:57.617Z,100750.78
2022-08-05T06:38:59.000Z,100750.67
2022-08-05T06:40:02.586Z,100750.87
2022-08-05T06:41:08.223Z,100753.55
2022-08-05T06:42:12.830Z,100750.15
2022-08-05T06:43:57.835Z,100750.34
2022-08-05T06:44:22.010Z,100748.90
2022-08-05T06:45:44.508Z,100753.84
2022-08-05T06:46:30.669Z,100752.07
2022-08-05T06:48:36.869Z,100758.19
2022-08-05T06:48:54.581Z,100758.38
2022-08-05T06:50:01.239Z,100758.89
2022-08-05T06:50:49.935Z,100763.05
2022-08-05T06:51:53.270Z,100759.61
2022-08-05T06:53:03.979Z,100760.13
2022-08-05T06:54:03.521Z,100765.38
2022-08-05T06:55:07.507Z,100765.08
2022-08-05T06:56:26.656Z,100767.60
2022-08-05T06:57:58.247Z,100769.26
2022-08-05T06:58:35.346Z,100767.30
2022-08-05T06:59:27.405Z,100764.16
2022-08-05T07:00:31.140Z,100774.52
2022-08-05T07:01:34.135Z,100769.75
2022-08-05T07:02:44.826Z,100766.65
2022-08-05T07:03:48.186Z,100761.89
2022-08-05T07:04:51.112Z,100768.80
2022-08-05T07:05:54.995Z,100761.24
2022-08-05T07:06:59.781Z,100771.81
2022-08-05T07:08:02.902Z,100768.71
2022-08-05T07:09:07.409Z,100761.34
2022-08-05T07:10:10.985Z,100765.14
2022-08-05T07:11:17.012Z,100759.43
2022-08-05T07:12:40.404Z,100763.58
2022-08-05T07:14:03.884Z,100760.65
2022-08-05T07:15:34.745Z,100772.20
2022-08-05T07:18:02.048Z,100770.50
2022-08-05T07:18:02.210Z,100770.94
2022-08-05T07:18:52.349Z,100773.68
2022-08-05T07:20:32.279Z,100768.81
2022-08-05T07:21:04.662Z,100765.87
2022-08-05T07:22:06.528Z,100771.34
2022-08-05T07:23:12.981Z,100767.58
2022-08-05T07:24:18.453Z,100768.27
2022-08-05T07:25:56.012Z,100772.07
2022-08-05T07:26:29.069Z,100763.88
2022-08-05T07:27:58.240Z,100773.28
2022-08-05T07:28:38.854Z,100769.51
2022-08-05T07:30:22.330Z,100764.94
2022-08-05T07:30:52.893Z,100768.74
2022-08-05T07:31:54.930Z,100761.34
2022-08-05T07:32:58.418Z,100759.53
2022-08-05T07:34:01.477Z,100764.99
2022-08-05T07:36:04.135Z,100768.30
2022-08-05T07:36:21.157Z,100768.50
2022-08-05T07:37:21.261Z,100766.53
2022-08-05T07:38:33.775Z,100762.91
2022-08-05T07:40:04.400Z,100766.53
2022-08-05T07:40:35.512Z,100762.91
2022-08-05T07:42:13.980Z,100760.45
2022-08-05T07:42:44.555Z,100768.30
2022-08-05T07:43:47.550Z,100759.39
2022-08-05T07:44:50.678Z,100764.83
2022-08-05T07:45:57.067Z,100765.48
2022-08-05T07:46:58.490Z,100765.28
2022-08-05T07:48:03.977Z,100765.94
2022-08-05T07:49:08.899Z,100764.11
2022-08-05T07:50:12.188Z,100759.45
2022-08-05T07:51:23.651Z,100755.66
2022-08-05T07:52:23.951Z,100764.19
2022-08-05T07:53:26.938Z,100760.08
2022-08-05T07:54:38.574Z,100770.58
2022-08-05T07:55:46.666Z,100760.01
2022-08-05T07:57:01.988Z,100767.41
2022-08-05T07:57:56.204Z,100767.20
2022-08-05T07:58:57.851Z,100766.71
2022-08-05T07:59:57.508Z,100766.19
2022-08-05T08:01:00.711Z,100762.91
2022-08-05T08:02:07.144Z,100766.53
2022-08-05T08:03:15.150Z,100762.08
2022-08-05T08:04:17.767Z,100776.06
2022-08-05T08:05:22.814Z,100776.06
2022-08-05T08:06:28.179Z,100775.55
2022-08-05T08:07:39.748Z,100777.48
2022-08-05T08:08:36.377Z,100777.80
2022-08-05T08:09:40.464Z,100784.56
2022-08-05T08:10:43.523Z,100779.28
2022-08-05T08:11:54.195Z,100779.59
2022-08-05T08:12:53.213Z,100779.09
2022-08-05T08:14:00.620Z,100780.23
2022-08-05T08:15:02.116Z,100774.12
2022-08-05T08:16:35.167Z,100774.43
2022-08-05T08:17:11.115Z,100769.17
2022-08-05T08:18:20.932Z,100771.45
2022-08-05T08:20:10.172Z,100765.34
2022-08-05T08:20:44.033Z,100765.68
2022-08-05T08:21:33.792Z,100764.02
2022-08-05T08:22:36.822Z,100768.27
2022-08-05T08:24:01.510Z,100767.78
2022-08-05T08:24:51.923Z,100769.22
2022-08-05T08:25:59.878Z,100762.31
2022-08-05T08:26:54.860Z,100761.79
2022-08-05T08:27:59.040Z,100752.05
2022-08-05T08:29:22.209Z,100763.58
2022-08-05T08:30:28.496Z,100756.63
2022-08-05T08:31:17.543Z,100750.20
2022-08-05T08:32:27.864Z,100756.94
2022-08-05T08:33:25.540Z,100753.31
2022-08-05T08:34:33.233Z,100755.80
2022-08-05T08:35:41.110Z,100750.73
2022-08-05T08:36:49.027Z,100753.40
2022-08-05T08:37:46.717Z,100750.47
2022-08-05T08:38:53.596Z,100749.20
2022-08-05T08:39:56.793Z,100740.38
2022-08-05T08:41:00.806Z,100746.66
2022-08-05T08:42:10.800Z,100749.81
2022-08-05T08:45:16.725Z,100746.95
2022-08-05T08:45:17.760Z,100739.55
2022-08-05T08:45:29.891Z,100743.36
2022-08-05T08:46:32.101Z,100735.48
2022-08-05T08:48:05.437Z,100740.73
2022-08-05T08:49:08.062Z,100742.08
2022-08-05T08:50:05.915Z,100734.20
2022-08-05T08:51:22.205Z,100735.51
2022-08-05T08:52:13.580Z,100730.42
2022-08-05T08:53:16.019Z,100739.31
2022-08-05T08:54:19.369Z,100732.57
2022-08-05T08:56:02.848Z,100734.54
2022-08-05T08:56:29.446Z,100739.31
2022-08-05T08:57:48.343Z,100734.05
2022-08-05T08:58:44.532Z,100733.54
2022-08-05T08:59:47.152Z,100739.14
2022-08-05T09:00:51.334Z,100727.94
2022-08-05T09:01:57.513Z,100731.26
2022-08-05T09:03:00.765Z,100733.71
2022-08-05T09:04:03.841Z,100727.80
2022-08-05T09:05:17.977Z,100728.31
2022-08-05T09:06:21.242Z,100732.42
2022-08-05T09:07:29.227Z,100728.17
2022-08-05T09:08:27.468Z,100728.86
2022-08-05T09:09:34.768Z,100728.86
2022-08-05T09:10:36.845Z,100727.71
2022-08-05T09:11:50.956Z,100731.83
2022-08-05T09:12:50.987Z,100726.73
2022-08-05T09:14:09.702Z,100726.73
2022-08-05T09:15:06.019Z,100729.22
2022-08-05T09:16:07.500Z,100728.87
2022-08-05T09:17:40.811Z,100727.73
2022-08-05T09:18:17.675Z,100732.19
2022-08-05T09:19:20.994Z,100736.30
2022-08-05T09:20:37.762Z,100735.98
2022-08-05T09:22:22.078Z,100740.96
2022-08-05T09:23:19.839Z,100738.64
2022-08-05T09:24:19.449Z,100736.35
2022-08-05T09:25:24.296Z,100725.34
2022-08-05T09:26:32.293Z,100734.27
2022-08-05T09:28:05.338Z,100738.37
2022-08-05T09:28:40.424Z,100737.74
2022-08-05T09:29:48.953Z,100739.05
2022-08-05T09:30:56.297Z,100737.59
2022-08-05T09:32:40.771Z,100738.10
2022-08-05T09:33:08.452Z,100746.16
2022-08-05T09:34:13.464Z,100750.62
2022-08-05T09:35:26.312Z,100745.84
2022-08-05T09:36:27.484Z,100750.30
2022-08-05T09:38:17.603Z,100756.22
2022-08-05T09:38:34.270Z,100748.13
2022-08-05T09:39:45.116Z,100743.20
2022-08-05T09:40:44.567Z,100753.06
2022-08-05T09:42:00.986Z,100747.29
2022-08-05T09:43:08.582Z,100754.19
2022-08-05T09:44:13.590Z,100758.76
2022-08-05T09:46:04.945Z,100756.94
2022-08-05T09:46:30.452Z,100755.11
2022-08-05T09:47:36.303Z,100755.73
2022-08-05T09:48:38.837Z,100760.34
2022-08-05T09:50:00.436Z,100762.63
2022-08-05T09:50:58.439Z,100755.20
2022-08-05T09:52:18.925Z,100762.25
2022-08-05T09:53:26.029Z,100764.88
2022-08-05T09:54:34.857Z,100762.73
2022-08-05T09:55:56.875Z,100768.13
2022-08-05T09:56:51.398Z,100767.96
2022-08-05T09:57:49.916Z,100778.98
2022-08-05T09:59:04.226Z,100784.38
2022-08-05T10:00:11.935Z,100791.45
2022-08-05T10:01:32.034Z,100780.05
2022-08-05T10:02:36.960Z,100791.72
2022-08-05T10:04:02.318Z,100791.30
2022-08-05T10:05:13.262Z,100780.03
2022-08-05T10:06:18.724Z,100785.57
2022-08-05T10:08:11.142Z,100781.23
2022-08-05T10:08:35.741Z,100787.27
2022-08-05T10:09:45.254Z,100790.19
2022-08-05T10:10:45.333Z,100787.52
2022-08-05T10:11:50.805Z,100787.33
2022-08-05T10:12:56.743Z,100787.95
2022-08-05T10:13:59.888Z,100784.66
2022-08-05T10:15:25.842Z,100787.76
2022-08-05T10:16:42.063Z,100784.77
2022-08-05T10:17:44.530Z,100784.77
2022-08-05T10:18:45.012Z,100788.70
2022-08-05T10:20:04.533Z,100784.25
2022-08-05T10:20:57.125Z,100785.91
2022-08-05T10:22:00.267Z,100787.58
2022-08-05T10:23:03.938Z,100782.78
2022-08-05T10:24:11.437Z,100783.61
2022-08-05T10:25:14.588Z,100774.39
2022-08-05T10:26:18.141Z,100784.13
2022-08-05T10:27:38.690Z,100783.00
2022-08-05T10:28:29.716Z,100783.48
2022-08-05T10:30:40.880Z,100778.42
2022-08-05T10:32:49.350Z,100780.91
2022-08-05T10:32:52.922Z,100781.73
2022-08-05T10:33:01.840Z,100771.05
2022-08-05T10:33:54.789Z,100773.53
2022-08-05T10:35:00.942Z,100783.58
2022-08-05T10:36:05.133Z,100777.34
2022-08-05T10:37:08.324Z,100774.24
2022-08-05T10:38:13.316Z,100768.34
2022-08-05T10:39:25.053Z,100768.83
2022-08-05T10:40:38.981Z,100779.70
2022-08-05T10:42:01.319Z,100771.01
2022-08-05T10:43:13.950Z,100769.53
2022-08-05T10:44:18.993Z,100770.05
2022-08-05T10:45:41.983Z,100775.34
2022-08-05T10:46:50.579Z,100768.61
2022-08-05T10:48:29.948Z,100773.86
2022-08-05T10:49:06.432Z,100774.38
2022-08-05T10:50:31.722Z,100774.07
2022-08-05T10:51:21.686Z,100771.45
2022-08-05T10:52:47.061Z,100765.55
2022-08-05T10:53:55.215Z,100772.80
2022-08-05T10:55:07.362Z,100773.30
2022-08-05T10:56:21.129Z,100769.05
2022-08-05T10:57:29.533Z,100775.13
2022-08-05T10:58:36.159Z,100772.55
2022-08-05T11:00:03.392Z,100774.41
2022-08-05T11:00:47.721Z,100768.98
2022-08-05T11:02:14.503Z,100771.34
2022-08-05T11:03:25.251Z,100774.00
2022-08-05T11:04:23.154Z,100779.16
2022-08-05T11:05:29.309Z,100775.39
2022-08-05T11:06:34.574Z,100776.91
2022-08-05T11:08:02.693Z,100777.59
2022-08-05T11:09:32.134Z,100777.77
2022-08-05T11:10:29.275Z,100778.45
2022-08-05T11:11:44.647Z,100782.28
2022-08-05T11:12:45.240Z,100782.77
2022-08-05T11:13:54.772Z,100779.66
2022-08-05T11:15:19.113Z,100785.77
2022-08-05T11:16:33.729Z,100778.99
2022-08-05T11:17:59.654Z,100781.80
2022-08-05T11:18:37.041Z,100776.19
2022-08-05T11:20:17.163Z,100779.34
2022-08-05T11:20:51.852Z,100774.05
2022-08-05T11:21:56.273Z,100776.85
2022-08-05T11:23:08.765Z,100776.34
2022-08-05T11:24:29.870Z,100771.91
2022-08-05T11:26:04.381Z,100777.52
2022-08-05T11:26:40.565Z,100775.03
2022-08-05T11:27:51.709Z,100772.54
2022-08-05T11:28:52.964Z,100769.23
2022-08-05T11:30:01.931Z,100770.40
2022-08-05T11:31:11.301Z,100772.17
2022-08-05T11:32:27.751Z,100770.54
2022-08-05T11:33:43.789Z,100776.77
2022-08-05T11:34:51.875Z,100775.45
2022-08-05T11:36:04.462Z,100777.42
2022-08-05T11:37:02.772Z,100775.77
2022-08-05T11:38:29.986Z,100774.94
2022-08-05T11:39:17.939Z,100774.11
2022-08-05T11:40:34.996Z,100776.91
2022-08-05T11:42:00.745Z,100765.71
2022-08-05T11:42:46.196Z,100770.48
2022-08-05T11:44:07.343Z,100765.71
2022-08-05T11:45:14.226Z,100768.20
2022-08-05T11:46:27.019Z,100766.23
2022-08-05T11:47:49.803Z,100766.71
2022-08-05T11:48:29.361Z,100767.53
2022-08-05T11:49:34.004Z,100763.91
2022-08-05T11:50:38.908Z,100763.91
2022-08-05T11:51:49.419Z,100758.31
2022-08-05T11:52:54.350Z,100759.14
2022-08-05T11:53:56.615Z,100755.20
2022-08-05T11:55:07.603Z,100755.20
2022-08-05T11:56:06.767Z,100759.14
2022-08-05T11:57:24.984Z,100762.77
2022-08-05T11:58:26.232Z,100770.34
2022-08-05T11:59:33.146Z,100771.48
2022-08-05T12:00:38.986Z,100771.48
2022-08-05T12:02:05.291Z,100761.11
2022-08-05T12:03:23.727Z,100764.73
2022-08-05T12:04:23.527Z,100767.23
2022-08-05T12:05:36.253Z,100764.42
2022-08-05T12:06:35.432Z,100762.14
2022-08-05T12:08:09.060Z,100762.63
2022-08-05T12:08:55.832Z,100768.74
2022-08-05T12:10:09.039Z,100762.48
2022-08-05T12:11:08.901Z,100764.66
2022-08-05T12:12:12.380Z,100765.97
2022-08-05T12:13:27.946Z,100768.45
2022-08-05T12:14:24.216Z,100768.14
2022-08-05T12:15:34.618Z,100767.79
2022-08-05T12:16:38.566Z,100760.22
2022-08-05T12:18:09.937Z,100769.97
2022-08-05T12:18:49.319Z,100778.08
2022-08-05T12:20:26.767Z,100772.14
2022-08-05T12:21:11.614Z,100772.48
2022-08-05T12:22:20.023Z,100770.48
2022-08-05T12:23:22.796Z,100766.88
2022-08-05T12:24:25.807Z,100766.88
2022-08-05T12:25:28.923Z,100766.88
2022-08-05T12:26:38.677Z,100765.70
2022-08-05T12:27:53.134Z,100762.91
2022-08-05T12:28:48.546Z,100763.73
2022-08-05T12:30:03.635Z,100763.41
2022-08-05T12:31:06.683Z,100770.99
2022-08-05T12:32:09.832Z,100769.02
2022-08-05T12:33:27.328Z,100769.02
2022-08-05T12:34:20.481Z,100774.62
2022-08-05T12:35:24.381Z,100770.99
2022-08-05T12:36:30.013Z,100770.48
2022-08-05T12:37:35.202Z,100773.91
2022-08-05T12:38:41.395Z,100770.94
2022-08-05T12:39:44.909Z,100768.77
2022-08-05T12:40:50.248Z,100766.31